KTOP/TOP METAR and TAF weather

Enter ICAO airport designator
Station Type Date Time Source
KTOP METAR 2020/01/18 15:53 UTC NOAA

KTOP 181553Z 30018G29KT 10SM CLR M04/M11 A3030 RMK AO2 PK WND 31032/1520 SLP269 T10391111


Station Type Date Time Source
KTOP Decoded METAR 2020/01/18 15:53 UTC NOAA

TOPEKA BILLARD MUNICIPAL AIRPORT, KS, United States (KTOP) 39-04N 95-38W 268M
Jan 18, 2020 - 10:53 AM EST / 2020.01.18 1553 UTC
Wind: from the WNW (300 degrees) at 21 MPH (18 KT) gusting to 33 MPH (29 KT):0
Visibility: 10 mile(s):0
Sky conditions: clear
Temperature: 25.0 F (-3.9 C)
Windchill: 10 F (-12 C):1
Dew Point: 12.0 F (-11.1 C)
Relative Humidity: 57%
Pressure (altimeter): 30.3 in. Hg (1026 hPa)
ob: KTOP 181553Z 30018G29KT 10SM CLR M04/M11 A3030 RMK AO2 PK WND 31032/1520 SLP269 T10391111
cycle: 16

Station Type Date Time Source
KTOP TAF 2020/01/18 12:22 UTC NOAA

TAF KTOP 181120Z 1812/1912 30021G34KT P6SM BKN015
FM181300 31022G36KT P6SM SKC
FM181900 31015G26KT P6SM SKC
FM182300 30010KT P6SM FEW250

Example: see airport list